createdAt,value
2022-11-07T00:01:48.606Z,14.97
2022-11-07T00:04:16.379Z,15.03
2022-11-07T00:06:43.873Z,15.93
2022-11-07T00:09:11.379Z,16.00
2022-11-07T00:11:38.801Z,15.40
2022-11-07T00:14:06.371Z,15.23
2022-11-07T00:16:35.240Z,14.83
2022-11-07T00:19:02.659Z,15.00
2022-11-07T00:21:30.346Z,15.93
2022-11-07T00:23:57.729Z,15.60
2022-11-07T00:26:25.421Z,15.67
2022-11-07T00:28:52.897Z,13.80
2022-11-07T00:31:20.458Z,16.47
2022-11-07T00:33:49.586Z,14.87
2022-11-07T00:36:18.879Z,15.63
2022-11-07T00:38:46.340Z,14.47
2022-11-07T00:41:14.060Z,15.40
2022-11-07T00:43:41.627Z,14.50
2022-11-07T00:46:10.097Z,15.37
2022-11-07T00:48:37.871Z,15.90
2022-11-07T00:51:11.362Z,15.63
2022-11-07T00:53:39.070Z,13.90
2022-11-07T00:56:08.971Z,13.90
2022-11-07T00:58:37.318Z,14.40
2022-11-07T01:01:08.977Z,14.60
2022-11-07T01:03:53.934Z,13.97
2022-11-07T01:06:22.873Z,13.80
2022-11-07T01:08:51.699Z,14.37
2022-11-07T01:11:19.106Z,14.30
2022-11-07T01:13:46.751Z,14.57
2022-11-07T01:16:14.481Z,13.33
2022-11-07T01:18:42.157Z,13.03
2022-11-07T01:21:15.285Z,12.83
2022-11-07T01:23:45.478Z,12.40
2022-11-07T01:26:14.754Z,13.40
2022-11-07T01:28:42.850Z,13.83
2022-11-07T01:31:12.344Z,14.37
2022-11-07T01:33:40.462Z,13.73
2022-11-07T01:36:10.541Z,12.97
2022-11-07T01:38:39.348Z,11.87
2022-11-07T01:41:25.267Z,12.93
2022-11-07T01:43:58.659Z,13.10
2022-11-07T01:46:30.448Z,13.00
2022-11-07T01:49:03.744Z,14.30
2022-11-07T01:51:34.693Z,12.33
2022-11-07T01:54:03.788Z,11.77
2022-11-07T01:56:36.534Z,12.27
2022-11-07T01:59:05.542Z,13.50
2022-11-07T02:01:33.541Z,12.40
2022-11-07T02:04:02.189Z,13.27
2022-11-07T02:06:47.507Z,12.93
2022-11-07T02:09:15.342Z,12.93
2022-11-07T02:11:44.173Z,12.17
2022-11-07T02:14:15.896Z,12.50
2022-11-07T02:16:43.916Z,12.13
2022-11-07T02:19:19.151Z,12.60
2022-11-07T02:21:54.782Z,11.53
2022-11-07T02:24:27.730Z,10.57
2022-11-07T02:26:58.273Z,10.60
2022-11-07T02:29:28.009Z,10.80
2022-11-07T02:32:03.263Z,11.27
2022-11-07T02:34:31.398Z,10.80
2022-11-07T02:37:00.855Z,10.90
2022-11-07T02:39:30.362Z,10.30
2022-11-07T02:42:00.658Z,11.30
2022-11-07T02:44:30.266Z,9.43
2022-11-07T02:46:58.128Z,9.97
2022-11-07T02:49:25.564Z,10.07
2022-11-07T02:51:53.064Z,10.83
2022-11-07T02:54:20.459Z,11.43
2022-11-07T02:56:49.185Z,10.80
2022-11-07T02:59:16.632Z,10.57
2022-11-07T03:01:44.134Z,10.67
2022-11-07T03:04:11.688Z,10.63
2022-11-07T03:06:39.124Z,13.57
2022-11-07T03:09:06.574Z,10.97
2022-11-07T03:11:34.071Z,11.10
2022-11-07T03:14:02.849Z,9.97
2022-11-07T03:16:30.242Z,10.37
2022-11-07T03:18:57.682Z,10.60
2022-11-07T03:21:25.061Z,10.60
2022-11-07T03:23:52.532Z,11.10
2022-11-07T03:26:20.952Z,10.60
2022-11-07T03:28:48.882Z,9.83
2022-11-07T03:31:17.667Z,10.93
2022-11-07T03:33:45.106Z,9.93
2022-11-07T03:36:12.571Z,10.00
2022-11-07T03:38:40.085Z,11.63
2022-11-07T03:41:07.524Z,10.40
2022-11-07T03:43:34.944Z,10.47
2022-11-07T03:46:02.502Z,9.47
2022-11-07T03:48:31.268Z,9.70
2022-11-07T03:50:58.732Z,9.57
2022-11-07T03:53:26.871Z,9.63
2022-11-07T03:55:55.566Z,10.40
2022-11-07T03:58:23.225Z,10.40
2022-11-07T04:00:50.658Z,8.83
2022-11-07T04:03:18.263Z,9.23
2022-11-07T04:05:47.087Z,10.03
2022-11-07T04:08:14.520Z,8.90
2022-11-07T04:10:41.923Z,8.97
2022-11-07T04:13:27.135Z,9.50
2022-11-07T04:16:23.971Z,9.80
2022-11-07T04:18:51.398Z,10.33
2022-11-07T04:21:20.159Z,9.53
2022-11-07T04:23:47.807Z,8.87
2022-11-07T04:26:33.228Z,9.23
2022-11-07T04:29:00.620Z,9.73
2022-11-07T04:31:28.047Z,9.10
2022-11-07T04:33:55.446Z,9.13
2022-11-07T04:36:24.220Z,9.67
2022-11-07T04:38:51.742Z,9.03
2022-11-07T04:41:21.294Z,9.63
2022-11-07T04:43:48.909Z,8.60
2022-11-07T04:46:16.384Z,9.17
2022-11-07T04:48:43.877Z,9.43
2022-11-07T04:51:15.765Z,8.90
2022-11-07T04:53:44.516Z,9.67
2022-11-07T04:56:11.931Z,8.57
2022-11-07T04:58:39.440Z,9.63
2022-11-07T05:01:06.887Z,8.73
2022-11-07T05:03:38.914Z,8.40
2022-11-07T05:06:11.223Z,8.53
2022-11-07T05:08:38.629Z,8.67
2022-11-07T05:11:07.421Z,8.70
2022-11-07T05:13:34.890Z,8.40
2022-11-07T05:16:02.313Z,8.00
2022-11-07T05:18:29.725Z,8.20
2022-11-07T05:20:57.305Z,7.87
2022-11-07T05:23:25.227Z,7.90
2022-11-07T05:25:53.959Z,7.80
2022-11-07T05:28:32.506Z,7.47
2022-11-07T05:31:04.792Z,7.80
2022-11-07T05:33:32.701Z,7.07
2022-11-07T05:36:09.666Z,7.23
2022-11-07T05:38:37.147Z,7.63
2022-11-07T05:41:05.235Z,7.80
2022-11-07T05:43:33.987Z,7.40
2022-11-07T05:46:01.966Z,8.13
2022-11-07T05:48:30.478Z,7.33
2022-11-07T05:50:58.187Z,7.10
2022-11-07T05:53:26.574Z,7.43
2022-11-07T05:55:54.719Z,7.27
2022-11-07T05:58:22.772Z,7.13
2022-11-07T06:00:51.535Z,7.10
2022-11-07T06:03:20.339Z,6.60
2022-11-07T06:05:48.190Z,7.27
2022-11-07T06:08:15.901Z,7.77
2022-11-07T06:10:44.513Z,7.10
2022-11-07T06:13:14.467Z,7.07
2022-11-07T06:15:42.926Z,7.00
2022-11-07T06:18:15.001Z,6.90
2022-11-07T06:20:42.594Z,6.80
2022-11-07T06:23:10.698Z,8.47
2022-11-07T06:25:38.262Z,6.47
2022-11-07T06:28:07.870Z,6.77
2022-11-07T06:30:35.595Z,6.67
2022-11-07T06:33:04.453Z,6.60
2022-11-07T06:35:33.476Z,6.47
2022-11-07T06:38:03.262Z,7.23
2022-11-07T06:40:30.849Z,5.70
2022-11-07T06:43:06.964Z,6.83
2022-11-07T06:45:35.558Z,7.00
2022-11-07T06:48:03.003Z,6.90
2022-11-07T06:50:30.497Z,6.40
2022-11-07T06:53:03.207Z,5.97
2022-11-07T06:55:30.890Z,6.93
2022-11-07T06:58:00.589Z,6.73
2022-11-07T07:00:28.445Z,6.33
2022-11-07T07:02:58.837Z,6.57
2022-11-07T07:05:26.808Z,7.40
2022-11-07T07:07:54.875Z,6.10
2022-11-07T07:10:25.133Z,6.63
2022-11-07T07:12:52.705Z,6.00
2022-11-07T07:15:20.197Z,6.67
2022-11-07T07:17:47.675Z,6.47
2022-11-07T07:20:15.514Z,7.17
2022-11-07T07:22:45.270Z,5.50
2022-11-07T07:25:12.756Z,5.20
2022-11-07T07:27:41.559Z,5.30
2022-11-07T07:30:10.787Z,5.40
2022-11-07T07:32:38.387Z,5.77
2022-11-07T07:35:06.985Z,5.40
2022-11-07T07:37:34.621Z,5.03
2022-11-07T07:40:02.100Z,5.20
2022-11-07T07:42:29.660Z,4.47
2022-11-07T07:44:58.408Z,4.97
2022-11-07T07:47:25.843Z,5.13
2022-11-07T07:49:53.298Z,4.33
2022-11-07T07:52:21.353Z,4.47
2022-11-07T07:54:48.795Z,5.03
2022-11-07T07:57:16.193Z,4.43
2022-11-07T07:59:43.740Z,4.27
2022-11-07T08:02:13.182Z,5.67
2022-11-07T08:04:42.016Z,4.37
2022-11-07T08:07:10.518Z,4.53
2022-11-07T08:09:37.935Z,4.37
2022-11-07T08:12:06.652Z,4.60
2022-11-07T08:14:34.123Z,4.53
2022-11-07T08:17:02.179Z,4.40
2022-11-07T08:19:31.006Z,4.13
2022-11-07T08:21:58.503Z,3.93
2022-11-07T08:24:25.938Z,4.23
2022-11-07T08:26:53.494Z,4.03
2022-11-07T08:29:20.925Z,3.63
2022-11-07T08:31:50.607Z,3.80
2022-11-07T08:34:18.564Z,3.83
2022-11-07T08:36:47.363Z,3.60
2022-11-07T08:39:14.848Z,3.47
2022-11-07T08:41:42.314Z,3.60
2022-11-07T08:44:10.173Z,3.40
2022-11-07T08:46:37.784Z,3.67
2022-11-07T08:49:05.220Z,3.77
2022-11-07T08:51:33.043Z,4.30
2022-11-07T08:54:01.898Z,3.70
2022-11-07T08:56:29.612Z,3.20
2022-11-07T08:58:57.059Z,3.50
2022-11-07T09:01:24.747Z,3.07
2022-11-07T09:03:57.647Z,4.07
2022-11-07T09:06:25.633Z,3.80
2022-11-07T09:08:53.222Z,3.00
2022-11-07T09:11:22.231Z,5.40
2022-11-07T09:13:49.701Z,4.33
2022-11-07T09:16:18.131Z,5.97
2022-11-07T09:18:46.342Z,4.43
2022-11-07T09:21:19.073Z,3.13
2022-11-07T09:23:49.405Z,3.93
2022-11-07T09:26:16.938Z,3.53
2022-11-07T09:28:49.986Z,2.80
2022-11-07T09:31:19.695Z,2.80
2022-11-07T09:33:47.243Z,2.87
2022-11-07T09:36:14.862Z,3.53
2022-11-07T09:38:42.296Z,3.20
2022-11-07T09:41:20.459Z,2.50
2022-11-07T09:44:04.761Z,3.30
2022-11-07T09:46:44.022Z,2.60
2022-11-07T09:49:17.485Z,2.67
2022-11-07T09:51:48.893Z,2.30
2022-11-07T09:54:21.437Z,2.67
2022-11-07T09:56:48.890Z,3.47
2022-11-07T09:59:24.280Z,2.03
2022-11-07T10:01:51.919Z,2.60
2022-11-07T10:04:25.825Z,2.47
2022-11-07T10:06:57.588Z,2.00
2022-11-07T10:09:33.205Z,2.10
2022-11-07T10:12:10.445Z,2.27
2022-11-07T10:14:50.373Z,2.23
2022-11-07T10:17:25.813Z,1.97
2022-11-07T10:20:24.307Z,2.70
2022-11-07T10:23:06.388Z,2.23
2022-11-07T10:25:38.723Z,4.23
2022-11-07T10:28:14.944Z,3.10
2022-11-07T10:30:47.146Z,2.20
2022-11-07T10:33:38.367Z,2.80
2022-11-07T10:36:14.496Z,2.13
2022-11-07T10:38:43.360Z,1.87
2022-11-07T10:41:16.964Z,2.50
2022-11-07T10:43:49.653Z,2.13
2022-11-07T10:46:23.145Z,2.17
2022-11-07T10:48:52.446Z,2.00
2022-11-07T10:51:20.056Z,2.03
2022-11-07T10:53:47.507Z,2.10
2022-11-07T10:56:19.959Z,2.50
2022-11-07T10:58:47.422Z,1.90
2022-11-07T11:01:15.030Z,1.93
2022-11-07T11:03:46.248Z,2.13
2022-11-07T11:06:23.363Z,2.10
2022-11-07T11:08:53.040Z,2.07
2022-11-07T11:11:30.719Z,2.20
2022-11-07T11:14:12.505Z,2.30
2022-11-07T11:16:42.142Z,2.60
2022-11-07T11:19:23.163Z,2.17
2022-11-07T11:21:52.976Z,2.07
2022-11-07T11:24:33.976Z,2.30
2022-11-07T11:27:05.786Z,2.10
2022-11-07T11:29:40.388Z,2.27
2022-11-07T11:32:17.705Z,2.37
2022-11-07T11:34:47.693Z,2.00
2022-11-07T11:37:20.231Z,2.20
2022-11-07T11:39:52.980Z,2.60
2022-11-07T11:42:32.095Z,2.20
2022-11-07T11:45:04.620Z,1.80
2022-11-07T11:47:36.662Z,2.13
2022-11-07T11:50:06.311Z,2.07
2022-11-07T11:52:36.004Z,2.00
2022-11-07T11:55:03.618Z,2.17
2022-11-07T11:57:37.300Z,2.07
2022-11-07T12:00:10.996Z,2.90
2022-11-07T12:03:09.693Z,2.20
2022-11-07T12:05:59.211Z,2.10
2022-11-07T12:08:45.095Z,2.10
2022-11-07T12:11:20.674Z,2.30
2022-11-07T12:13:54.543Z,2.40
2022-11-07T12:16:31.326Z,2.40
2022-11-07T12:19:07.585Z,2.00
2022-11-07T12:21:44.648Z,1.83
2022-11-07T12:24:26.264Z,2.63
2022-11-07T12:27:00.873Z,1.90
2022-11-07T12:29:36.819Z,2.17
2022-11-07T12:32:13.666Z,2.30
2022-11-07T12:34:55.188Z,2.40
2022-11-07T12:37:39.333Z,2.30
2022-11-07T12:40:25.330Z,2.33
2022-11-07T12:43:05.658Z,2.63
2022-11-07T12:45:47.400Z,2.50
2022-11-07T12:48:27.442Z,2.17
2022-11-07T12:51:06.103Z,2.17
2022-11-07T12:53:45.160Z,2.50
2022-11-07T12:56:16.751Z,2.87
2022-11-07T12:58:44.948Z,3.17
2022-11-07T13:01:13.928Z,2.53
2022-11-07T13:03:55.716Z,2.70
2022-11-07T13:06:30.875Z,3.70
2022-11-07T13:09:10.820Z,2.00
2022-11-07T13:12:04.103Z,4.27
2022-11-07T13:14:34.122Z,3.60
2022-11-07T13:17:13.432Z,2.70
2022-11-07T13:19:43.829Z,2.53
2022-11-07T13:22:24.156Z,2.77
2022-11-07T13:24:54.555Z,2.60
2022-11-07T13:27:25.891Z,2.70
2022-11-07T13:29:53.400Z,2.83
2022-11-07T13:32:20.989Z,2.43
2022-11-07T13:34:58.057Z,2.53
2022-11-07T13:37:28.683Z,2.30
2022-11-07T13:40:01.301Z,3.90
2022-11-07T13:42:33.859Z,2.60
2022-11-07T13:45:17.375Z,2.40
2022-11-07T13:47:45.420Z,2.40
2022-11-07T13:50:22.011Z,2.10
2022-11-07T13:52:59.059Z,1.93
2022-11-07T13:55:31.557Z,2.80
2022-11-07T13:58:04.748Z,2.97
2022-11-07T14:00:34.653Z,3.43
2022-11-07T14:03:02.327Z,2.43
2022-11-07T14:05:34.692Z,2.20
2022-11-07T14:08:05.192Z,2.40
2022-11-07T14:10:38.337Z,2.47
2022-11-07T14:13:11.355Z,2.37
2022-11-07T14:15:47.431Z,2.30
2022-11-07T14:18:16.862Z,2.60
2022-11-07T14:20:48.370Z,2.57
2022-11-07T14:23:16.688Z,2.17
2022-11-07T14:25:44.183Z,2.37
2022-11-07T14:28:18.017Z,2.53
2022-11-07T14:30:51.344Z,2.53
2022-11-07T14:33:21.131Z,3.30
2022-11-07T14:35:51.210Z,2.20
2022-11-07T14:38:22.416Z,2.80
2022-11-07T14:40:51.145Z,2.50
2022-11-07T14:43:23.075Z,2.40
2022-11-07T14:48:41.675Z,3.43
2022-11-07T14:51:13.193Z,3.43
2022-11-07T14:53:49.731Z,2.90
2022-11-07T14:56:20.953Z,2.50
2022-11-07T14:58:50.110Z,3.17
2022-11-07T15:01:26.548Z,4.10
2022-11-07T15:03:56.612Z,3.97
2022-11-07T15:06:26.559Z,2.90
2022-11-07T15:08:58.920Z,3.37
2022-11-07T15:11:30.917Z,2.70
2022-11-07T15:14:02.144Z,2.40
2022-11-07T15:16:35.098Z,2.90
2022-11-07T15:19:04.835Z,2.40
2022-11-07T15:21:34.121Z,3.20
2022-11-07T15:24:22.401Z,2.37
2022-11-07T15:26:59.298Z,2.43
2022-11-07T15:29:32.040Z,2.70
2022-11-07T15:32:06.858Z,3.13
2022-11-07T15:34:58.655Z,2.80
2022-11-07T15:37:23.898Z,2.73
2022-11-07T15:39:51.531Z,2.30
2022-11-07T15:42:19.131Z,2.80
2022-11-07T15:44:47.868Z,2.53
2022-11-07T15:47:19.081Z,2.70
2022-11-07T15:49:46.876Z,2.50
2022-11-07T15:52:14.908Z,3.00
2022-11-07T15:54:42.304Z,2.80
2022-11-07T15:57:09.915Z,3.10
2022-11-07T15:59:38.662Z,3.07
2022-11-07T16:02:13.799Z,3.20
2022-11-07T16:04:42.032Z,4.00
2022-11-07T16:07:14.201Z,4.00
2022-11-07T16:09:41.613Z,3.87
2022-11-07T16:12:13.067Z,3.10
2022-11-07T16:14:44.857Z,3.17
2022-11-07T16:17:16.472Z,3.37
2022-11-07T16:19:43.888Z,3.57
2022-11-07T16:22:11.464Z,3.00
2022-11-07T16:24:38.864Z,3.40
2022-11-07T16:27:06.713Z,3.00
2022-11-07T16:29:34.220Z,2.97
2022-11-07T16:32:01.717Z,2.57
2022-11-07T16:34:30.446Z,3.00
2022-11-07T16:36:57.879Z,3.07
2022-11-07T16:39:25.364Z,3.03
2022-11-07T16:41:52.802Z,3.00
2022-11-07T16:44:26.093Z,3.00
2022-11-07T16:46:56.251Z,2.90
2022-11-07T16:49:29.282Z,2.90
2022-11-07T16:51:58.440Z,2.83
2022-11-07T16:54:26.009Z,3.17
2022-11-07T16:56:54.034Z,3.07
2022-11-07T16:59:23.634Z,3.27
2022-11-07T17:01:53.560Z,3.57
2022-11-07T17:04:21.053Z,3.80
2022-11-07T17:06:48.492Z,3.57
2022-11-07T17:09:20.258Z,3.27
2022-11-07T17:11:49.021Z,3.03
2022-11-07T17:14:16.431Z,3.57
2022-11-07T17:16:47.441Z,3.47
2022-11-07T17:19:15.389Z,3.40
2022-11-07T17:21:46.360Z,3.13
2022-11-07T17:24:14.400Z,3.00
2022-11-07T17:26:43.187Z,3.00
2022-11-07T17:29:14.004Z,3.23
2022-11-07T17:31:42.081Z,2.97
2022-11-07T17:34:10.014Z,3.40
2022-11-07T17:36:40.424Z,3.30
2022-11-07T17:39:12.055Z,3.47
2022-11-07T17:41:40.922Z,3.37
2022-11-07T17:44:10.501Z,3.23
2022-11-07T17:46:41.754Z,3.03
2022-11-07T17:49:11.678Z,2.57
2022-11-07T17:51:40.256Z,2.87
2022-11-07T17:54:07.803Z,3.20
2022-11-07T17:56:35.398Z,3.40
2022-11-07T17:59:05.266Z,3.43
2022-11-07T18:01:36.719Z,3.30
2022-11-07T18:04:05.558Z,2.80
2022-11-07T18:06:35.923Z,2.80
2022-11-07T18:09:04.042Z,3.27
2022-11-07T18:11:31.500Z,3.27
2022-11-07T18:14:00.610Z,3.60
2022-11-07T18:16:29.928Z,2.67
2022-11-07T18:19:00.448Z,2.80
2022-11-07T18:21:28.947Z,2.87
2022-11-07T18:23:57.207Z,2.77
2022-11-07T18:26:30.240Z,3.27
2022-11-07T18:29:01.013Z,3.50
2022-11-07T18:31:28.450Z,3.67
2022-11-07T18:33:57.663Z,3.20
2022-11-07T18:36:27.401Z,3.37
2022-11-07T18:38:54.939Z,3.67
2022-11-07T18:41:24.391Z,3.93
2022-11-07T18:43:53.775Z,3.90
2022-11-07T18:46:22.015Z,3.50
2022-11-07T18:48:50.690Z,3.60
2022-11-07T18:51:20.891Z,3.20
2022-11-07T18:53:50.492Z,3.70
2022-11-07T18:56:18.383Z,3.53
2022-11-07T18:58:46.021Z,3.77
2022-11-07T19:01:15.679Z,3.17
2022-11-07T19:03:43.933Z,4.20
2022-11-07T19:06:13.837Z,4.50
2022-11-07T19:08:42.855Z,4.20
2022-11-07T19:11:13.671Z,4.70
2022-11-07T19:13:42.434Z,6.40
2022-11-07T19:16:11.420Z,5.20
2022-11-07T19:18:39.563Z,4.90
2022-11-07T19:21:07.221Z,5.40
2022-11-07T19:23:36.444Z,5.33
2022-11-07T19:26:03.903Z,6.13
2022-11-07T19:28:32.918Z,6.13
2022-11-07T19:31:03.278Z,4.80
2022-11-07T19:33:30.652Z,6.13
2022-11-07T19:36:00.403Z,4.20
2022-11-07T19:38:29.077Z,4.10
2022-11-07T19:40:56.766Z,4.13
2022-11-07T19:43:24.480Z,4.00
2022-11-07T19:45:53.209Z,4.00
2022-11-07T19:48:20.722Z,3.80
2022-11-07T19:50:48.115Z,3.80
2022-11-07T19:53:16.165Z,3.50
2022-11-07T19:55:43.910Z,3.70
2022-11-07T19:58:11.341Z,3.83
2022-11-07T20:00:39.742Z,3.70
2022-11-07T20:03:08.523Z,4.50
2022-11-07T20:05:39.156Z,4.40
2022-11-07T20:08:06.852Z,3.80
2022-11-07T20:10:34.844Z,5.67
2022-11-07T20:13:02.305Z,10.87
2022-11-07T20:15:29.834Z,10.90
2022-11-07T20:17:57.281Z,4.80
2022-11-07T20:20:29.848Z,3.60
2022-11-07T20:22:57.333Z,4.30
2022-11-07T20:25:24.721Z,3.80
2022-11-07T20:27:52.087Z,3.87
2022-11-07T20:30:19.639Z,3.70
2022-11-07T20:32:47.333Z,3.93
2022-11-07T20:35:14.786Z,5.33
2022-11-07T20:37:43.534Z,3.90
2022-11-07T20:40:12.162Z,3.33
2022-11-07T20:42:39.563Z,3.90
2022-11-07T20:45:08.025Z,3.03
2022-11-07T20:47:35.448Z,3.70
2022-11-07T20:50:02.837Z,2.63
2022-11-07T20:52:30.218Z,3.30
2022-11-07T20:54:58.938Z,3.13
2022-11-07T20:57:27.442Z,3.37
2022-11-07T20:59:54.872Z,4.27
2022-11-07T21:02:23.616Z,4.10
2022-11-07T21:05:16.119Z,3.73
2022-11-07T21:07:38.890Z,3.40
2022-11-07T21:10:08.222Z,3.33
2022-11-07T21:12:35.626Z,3.97
2022-11-07T21:15:03.020Z,3.80
2022-11-07T21:17:30.413Z,2.97
2022-11-07T21:19:57.837Z,3.50
2022-11-07T21:22:29.120Z,3.20
2022-11-07T21:24:57.098Z,3.27
2022-11-07T21:27:25.824Z,4.37
2022-11-07T21:29:53.567Z,3.40
2022-11-07T21:32:20.950Z,2.57
2022-11-07T21:34:48.353Z,3.70
2022-11-07T21:37:15.718Z,4.90
2022-11-07T21:39:43.129Z,4.20
2022-11-07T21:42:10.498Z,3.57
2022-11-07T21:44:39.338Z,3.27
2022-11-07T21:47:06.754Z,3.57
2022-11-07T21:49:34.138Z,3.20
2022-11-07T21:52:01.681Z,2.80
2022-11-07T21:54:29.223Z,6.53
2022-11-07T21:56:56.625Z,3.17
2022-11-07T21:59:24.043Z,3.87
2022-11-07T22:01:55.315Z,2.67
2022-11-07T22:04:22.787Z,2.93
2022-11-07T22:06:51.542Z,2.83
2022-11-07T22:09:20.844Z,2.70
2022-11-07T22:11:48.476Z,2.90
2022-11-07T22:14:17.816Z,3.30
2022-11-07T22:16:45.519Z,2.60
2022-11-07T22:19:14.398Z,8.13
2022-11-07T22:21:42.282Z,11.97
2022-11-07T22:24:10.137Z,13.43
2022-11-07T22:26:37.670Z,5.33
2022-11-07T22:29:05.093Z,6.50
2022-11-07T22:37:12.660Z,7.77
2022-11-07T22:39:40.094Z,7.27
2022-11-07T22:42:07.515Z,5.10
2022-11-07T22:44:35.023Z,4.93
2022-11-07T22:47:02.757Z,6.90
2022-11-07T22:49:30.206Z,2.70
2022-11-07T22:51:57.706Z,4.30
2022-11-07T22:54:26.473Z,3.77
2022-11-07T22:56:53.904Z,3.80
2022-11-07T23:05:51.357Z,3.10
2022-11-07T23:08:19.378Z,3.10
2022-11-07T23:11:14.366Z,4.23
2022-11-07T23:13:45.866Z,4.90
2022-11-07T23:16:20.618Z,3.30
2022-11-07T23:18:48.484Z,2.50
2022-11-07T23:21:16.941Z,3.00
2022-11-07T23:23:44.602Z,3.43
2022-11-07T23:26:15.399Z,3.07
2022-11-07T23:28:43.729Z,3.00
2022-11-07T23:31:11.857Z,2.83
2022-11-07T23:33:39.609Z,2.50
2022-11-07T23:36:09.486Z,2.47
2022-11-07T23:38:36.927Z,3.20
2022-11-07T23:41:05.795Z,3.00
2022-11-07T23:43:35.605Z,3.13
2022-11-07T23:46:20.785Z,3.10
2022-11-07T23:49:09.404Z,3.00
2022-11-07T23:51:40.045Z,10.33
2022-11-07T23:54:25.434Z,3.40
2022-11-07T23:56:52.872Z,2.70
2022-11-07T23:59:39.493Z,2.87
